sensor_id;sensor_type;location;lat;lon;timestamp;temperature;humidity
21092;DHT22;10704;42.678;23.288;2022-09-02T00:03:42;20.20;99.90
21092;DHT22;10704;42.678;23.288;2022-09-02T00:06:08;20.20;99.90
21092;DHT22;10704;42.678;23.288;2022-09-02T00:08:35;20.20;99.90
21092;DHT22;10704;42.678;23.288;2022-09-02T00:11:02;20.10;99.90
21092;DHT22;10704;42.678;23.288;2022-09-02T00:13:32;20.10;99.90
21092;DHT22;10704;42.678;23.288;2022-09-02T00:15:58;20.10;99.90
21092;DHT22;10704;42.678;23.288;2022-09-02T00:18:25;20.10;99.90
21092;DHT22;10704;42.678;23.288;2022-09-02T00:20:51;20.00;99.90
21092;DHT22;10704;42.678;23.288;2022-09-02T00:23:18;19.90;99.90
21092;DHT22;10704;42.678;23.288;2022-09-02T00:25:44;20.00;99.90
21092;DHT22;10704;42.678;23.288;2022-09-02T00:28:12;20.10;99.90
21092;DHT22;10704;42.678;23.288;2022-09-02T00:30:38;20.00;99.90
21092;DHT22;10704;42.678;23.288;2022-09-02T00:33:05;20.10;99.90
21092;DHT22;10704;42.678;23.288;2022-09-02T00:35:32;20.20;99.90
21092;DHT22;10704;42.678;23.288;2022-09-02T00:37:58;20.20;99.90
21092;DHT22;10704;42.678;23.288;2022-09-02T00:40:25;20.30;99.90
21092;DHT22;10704;42.678;23.288;2022-09-02T00:42:51;20.30;99.90
21092;DHT22;10704;42.678;23.288;2022-09-02T00:45:19;20.30;99.90
21092;DHT22;10704;42.678;23.288;2022-09-02T00:47:45;20.30;99.90
21092;DHT22;10704;42.678;23.288;2022-09-02T00:50:14;20.30;99.90
21092;DHT22;10704;42.678;23.288;2022-09-02T00:52:52;20.20;99.90
21092;DHT22;10704;42.678;23.288;2022-09-02T00:55:32;20.30;99.90
21092;DHT22;10704;42.678;23.288;2022-09-02T00:58:04;20.30;99.90
21092;DHT22;10704;42.678;23.288;2022-09-02T01:00:36;20.30;99.90
21092;DHT22;10704;42.678;23.288;2022-09-02T01:03:07;20.40;99.90
21092;DHT22;10704;42.678;23.288;2022-09-02T01:05:36;20.40;99.90
21092;DHT22;10704;42.678;23.288;2022-09-02T01:08:03;20.40;99.90
21092;DHT22;10704;42.678;23.288;2022-09-02T01:10:33;20.40;99.90
21092;DHT22;10704;42.678;23.288;2022-09-02T01:13:07;20.20;99.90
21092;DHT22;10704;42.678;23.288;2022-09-02T01:15:37;19.90;99.90
21092;DHT22;10704;42.678;23.288;2022-09-02T01:18:05;19.80;99.90
21092;DHT22;10704;42.678;23.288;2022-09-02T01:20:33;19.90;99.90
21092;DHT22;10704;42.678;23.288;2022-09-02T01:22:59;19.90;99.90
21092;DHT22;10704;42.678;23.288;2022-09-02T01:25:32;20.00;99.90
21092;DHT22;10704;42.678;23.288;2022-09-02T01:28:06;20.00;99.90
21092;DHT22;10704;42.678;23.288;2022-09-02T01:30:35;19.90;99.90
21092;DHT22;10704;42.678;23.288;2022-09-02T01:33:02;19.80;99.90
21092;DHT22;10704;42.678;23.288;2022-09-02T01:35:29;19.70;99.90
21092;DHT22;10704;42.678;23.288;2022-09-02T01:37:56;19.60;99.90
21092;DHT22;10704;42.678;23.288;2022-09-02T01:40:24;19.50;99.90
21092;DHT22;10704;42.678;23.288;2022-09-02T01:42:57;19.30;99.90
21092;DHT22;10704;42.678;23.288;2022-09-02T01:45:24;18.90;99.90
21092;DHT22;10704;42.678;23.288;2022-09-02T01:47:50;18.60;99.90
21092;DHT22;10704;42.678;23.288;2022-09-02T01:50:17;18.40;99.90
21092;DHT22;10704;42.678;23.288;2022-09-02T01:52:44;18.20;99.90
21092;DHT22;10704;42.678;23.288;2022-09-02T01:55:10;18.10;99.90
21092;DHT22;10704;42.678;23.288;2022-09-02T01:57:37;18.10;99.90
21092;DHT22;10704;42.678;23.288;2022-09-02T02:00:07;18.10;99.90
21092;DHT22;10704;42.678;23.288;2022-09-02T02:02:38;18.20;99.90
21092;DHT22;10704;42.678;23.288;2022-09-02T02:05:05;18.30;99.90
21092;DHT22;10704;42.678;23.288;2022-09-02T02:07:31;18.30;99.90
21092;DHT22;10704;42.678;23.288;2022-09-02T02:09:57;18.40;99.90
21092;DHT22;10704;42.678;23.288;2022-09-02T02:12:23;18.40;99.90
21092;DHT22;10704;42.678;23.288;2022-09-02T02:14:49;18.50;99.90
21092;DHT22;10704;42.678;23.288;2022-09-02T02:17:16;18.70;99.90
21092;DHT22;10704;42.678;23.288;2022-09-02T02:19:42;18.70;99.90
21092;DHT22;10704;42.678;23.288;2022-09-02T02:22:09;18.70;99.90
21092;DHT22;10704;42.678;23.288;2022-09-02T02:24:36;18.80;99.90
21092;DHT22;10704;42.678;23.288;2022-09-02T02:27:02;18.70;99.90
21092;DHT22;10704;42.678;23.288;2022-09-02T02:29:28;18.70;99.90
21092;DHT22;10704;42.678;23.288;2022-09-02T02:31:54;18.60;99.90
21092;DHT22;10704;42.678;23.288;2022-09-02T02:34:21;18.60;99.90
21092;DHT22;10704;42.678;23.288;2022-09-02T02:36:47;18.60;99.90
21092;DHT22;10704;42.678;23.288;2022-09-02T02:39:13;18.50;99.90
21092;DHT22;10704;42.678;23.288;2022-09-02T02:41:40;18.50;99.90
21092;DHT22;10704;42.678;23.288;2022-09-02T02:44:07;18.50;99.90
21092;DHT22;10704;42.678;23.288;2022-09-02T02:46:35;18.50;99.90
21092;DHT22;10704;42.678;23.288;2022-09-02T02:49:03;18.60;99.90
21092;DHT22;10704;42.678;23.288;2022-09-02T02:51:31;18.60;99.90
21092;DHT22;10704;42.678;23.288;2022-09-02T02:53:58;18.60;99.90
21092;DHT22;10704;42.678;23.288;2022-09-02T02:56:24;18.60;99.90
21092;DHT22;10704;42.678;23.288;2022-09-02T02:58:50;18.60;99.90
21092;DHT22;10704;42.678;23.288;2022-09-02T03:01:16;18.60;99.90
21092;DHT22;10704;42.678;23.288;2022-09-02T03:03:43;18.50;99.90
21092;DHT22;10704;42.678;23.288;2022-09-02T03:06:09;18.50;99.90
21092;DHT22;10704;42.678;23.288;2022-09-02T03:08:35;18.60;99.90
21092;DHT22;10704;42.678;23.288;2022-09-02T03:13:50;18.60;99.90
21092;DHT22;10704;42.678;23.288;2022-09-02T03:16:17;18.50;99.90
21092;DHT22;10704;42.678;23.288;2022-09-02T03:18:46;18.50;99.90
21092;DHT22;10704;42.678;23.288;2022-09-02T03:21:12;18.60;99.90
21092;DHT22;10704;42.678;23.288;2022-09-02T03:23:43;18.60;99.90
21092;DHT22;10704;42.678;23.288;2022-09-02T03:26:14;18.60;99.90
21092;DHT22;10704;42.678;23.288;2022-09-02T03:28:42;18.70;99.90
21092;DHT22;10704;42.678;23.288;2022-09-02T03:31:16;18.60;99.90
21092;DHT22;10704;42.678;23.288;2022-09-02T03:33:42;18.50;99.90
21092;DHT22;10704;42.678;23.288;2022-09-02T03:36:19;18.60;99.90
21092;DHT22;10704;42.678;23.288;2022-09-02T03:38:46;18.60;99.90
21092;DHT22;10704;42.678;23.288;2022-09-02T03:41:12;18.60;99.90
21092;DHT22;10704;42.678;23.288;2022-09-02T03:43:39;18.70;99.90
21092;DHT22;10704;42.678;23.288;2022-09-02T03:46:05;18.60;99.90
21092;DHT22;10704;42.678;23.288;2022-09-02T03:48:31;18.70;99.90
21092;DHT22;10704;42.678;23.288;2022-09-02T03:50:57;18.60;99.90
21092;DHT22;10704;42.678;23.288;2022-09-02T03:53:23;18.60;99.90
21092;DHT22;10704;42.678;23.288;2022-09-02T03:55:54;18.60;99.90
21092;DHT22;10704;42.678;23.288;2022-09-02T03:58:23;18.60;99.90
21092;DHT22;10704;42.678;23.288;2022-09-02T04:00:52;18.60;99.90
21092;DHT22;10704;42.678;23.288;2022-09-02T04:03:20;18.60;99.90
21092;DHT22;10704;42.678;23.288;2022-09-02T04:05:48;18.60;99.90
21092;DHT22;10704;42.678;23.288;2022-09-02T04:08:16;18.60;99.90
21092;DHT22;10704;42.678;23.288;2022-09-02T04:10:42;18.60;99.90
21092;DHT22;10704;42.678;23.288;2022-09-02T04:13:09;18.70;99.90
21092;DHT22;10704;42.678;23.288;2022-09-02T04:15:38;18.70;99.90
21092;DHT22;10704;42.678;23.288;2022-09-02T04:18:08;18.60;99.90
21092;DHT22;10704;42.678;23.288;2022-09-02T04:20:37;18.60;99.90
21092;DHT22;10704;42.678;23.288;2022-09-02T04:23:05;18.50;99.90
21092;DHT22;10704;42.678;23.288;2022-09-02T04:25:31;18.50;99.90
21092;DHT22;10704;42.678;23.288;2022-09-02T04:27:58;18.60;99.90
21092;DHT22;10704;42.678;23.288;2022-09-02T04:30:24;18.70;99.90
21092;DHT22;10704;42.678;23.288;2022-09-02T04:32:53;18.60;99.90
21092;DHT22;10704;42.678;23.288;2022-09-02T04:35:19;18.60;99.90
21092;DHT22;10704;42.678;23.288;2022-09-02T04:37:46;18.60;99.90
21092;DHT22;10704;42.678;23.288;2022-09-02T04:40:14;18.60;99.90
21092;DHT22;10704;42.678;23.288;2022-09-02T04:42:40;18.50;99.90
21092;DHT22;10704;42.678;23.288;2022-09-02T04:45:08;18.60;99.90
21092;DHT22;10704;42.678;23.288;2022-09-02T04:47:37;18.60;99.90
21092;DHT22;10704;42.678;23.288;2022-09-02T04:50:03;18.70;99.90
21092;DHT22;10704;42.678;23.288;2022-09-02T04:52:34;18.70;99.90
21092;DHT22;10704;42.678;23.288;2022-09-02T04:55:00;18.80;99.90
21092;DHT22;10704;42.678;23.288;2022-09-02T04:57:29;18.80;99.90
21092;DHT22;10704;42.678;23.288;2022-09-02T04:59:55;18.70;99.90
21092;DHT22;10704;42.678;23.288;2022-09-02T05:02:22;18.70;99.90
21092;DHT22;10704;42.678;23.288;2022-09-02T05:04:48;18.80;99.90
21092;DHT22;10704;42.678;23.288;2022-09-02T05:07:23;18.70;99.90
21092;DHT22;10704;42.678;23.288;2022-09-02T05:09:55;18.70;99.90
21092;DHT22;10704;42.678;23.288;2022-09-02T05:12:22;18.70;99.90
21092;DHT22;10704;42.678;23.288;2022-09-02T05:14:54;18.90;99.90
21092;DHT22;10704;42.678;23.288;2022-09-02T05:17:23;19.00;99.90
21092;DHT22;10704;42.678;23.288;2022-09-02T05:19:49;19.00;99.90
21092;DHT22;10704;42.678;23.288;2022-09-02T05:22:16;19.00;99.90
21092;DHT22;10704;42.678;23.288;2022-09-02T05:24:43;19.10;99.90
21092;DHT22;10704;42.678;23.288;2022-09-02T05:27:12;19.10;99.90
21092;DHT22;10704;42.678;23.288;2022-09-02T05:29:41;19.20;99.90
21092;DHT22;10704;42.678;23.288;2022-09-02T05:32:07;19.30;99.90
21092;DHT22;10704;42.678;23.288;2022-09-02T05:34:35;19.30;99.90
21092;DHT22;10704;42.678;23.288;2022-09-02T05:37:03;19.30;99.90
21092;DHT22;10704;42.678;23.288;2022-09-02T05:39:30;19.30;99.90
21092;DHT22;10704;42.678;23.288;2022-09-02T05:41:58;19.40;99.90
21092;DHT22;10704;42.678;23.288;2022-09-02T05:44:24;19.40;99.90
21092;DHT22;10704;42.678;23.288;2022-09-02T05:46:51;19.40;99.90
21092;DHT22;10704;42.678;23.288;2022-09-02T05:49:17;19.50;99.90
21092;DHT22;10704;42.678;23.288;2022-09-02T05:51:57;19.70;99.90
21092;DHT22;10704;42.678;23.288;2022-09-02T05:54:37;19.80;99.90
21092;DHT22;10704;42.678;23.288;2022-09-02T05:57:10;19.90;99.90
21092;DHT22;10704;42.678;23.288;2022-09-02T05:59:40;19.90;99.90
21092;DHT22;10704;42.678;23.288;2022-09-02T06:02:10;19.80;99.90
21092;DHT22;10704;42.678;23.288;2022-09-02T06:04:39;19.70;99.90
21092;DHT22;10704;42.678;23.288;2022-09-02T06:07:07;19.70;99.90
21092;DHT22;10704;42.678;23.288;2022-09-02T06:09:34;20.00;99.90
21092;DHT22;10704;42.678;23.288;2022-09-02T06:12:01;20.10;99.90
21092;DHT22;10704;42.678;23.288;2022-09-02T06:14:30;20.30;99.90
21092;DHT22;10704;42.678;23.288;2022-09-02T06:16:57;20.40;99.90
21092;DHT22;10704;42.678;23.288;2022-09-02T06:19:34;20.50;99.90
21092;DHT22;10704;42.678;23.288;2022-09-02T06:22:02;20.40;99.90
21092;DHT22;10704;42.678;23.288;2022-09-02T06:24:29;20.30;99.90
21092;DHT22;10704;42.678;23.288;2022-09-02T06:26:57;19.90;99.90
21092;DHT22;10704;42.678;23.288;2022-09-02T06:29:25;20.00;99.90
21092;DHT22;10704;42.678;23.288;2022-09-02T06:31:53;20.10;99.90
21092;DHT22;10704;42.678;23.288;2022-09-02T06:34:22;20.10;99.90
21092;DHT22;10704;42.678;23.288;2022-09-02T06:36:50;20.20;99.90
21092;DHT22;10704;42.678;23.288;2022-09-02T06:39:20;20.10;99.90
21092;DHT22;10704;42.678;23.288;2022-09-02T06:41:47;20.20;99.90
21092;DHT22;10704;42.678;23.288;2022-09-02T06:44:16;20.30;99.90
21092;DHT22;10704;42.678;23.288;2022-09-02T06:46:45;20.30;99.90
21092;DHT22;10704;42.678;23.288;2022-09-02T06:49:14;20.40;99.90
21092;DHT22;10704;42.678;23.288;2022-09-02T06:51:47;20.40;99.90
21092;DHT22;10704;42.678;23.288;2022-09-02T06:54:17;20.50;99.90
21092;DHT22;10704;42.678;23.288;2022-09-02T06:56:45;20.70;99.90
21092;DHT22;10704;42.678;23.288;2022-09-02T06:59:12;20.90;99.90
21092;DHT22;10704;42.678;23.288;2022-09-02T07:01:45;21.00;99.90
21092;DHT22;10704;42.678;23.288;2022-09-02T07:04:16;20.90;99.90
21092;DHT22;10704;42.678;23.288;2022-09-02T07:07:03;20.90;99.90
21092;DHT22;10704;42.678;23.288;2022-09-02T07:09:32;21.00;99.90
21092;DHT22;10704;42.678;23.288;2022-09-02T07:12:06;21.20;99.90
21092;DHT22;10704;42.678;23.288;2022-09-02T07:14:39;21.20;99.90
21092;DHT22;10704;42.678;23.288;2022-09-02T07:17:08;21.20;99.90
21092;DHT22;10704;42.678;23.288;2022-09-02T07:19:35;21.30;99.90
21092;DHT22;10704;42.678;23.288;2022-09-02T07:22:03;21.20;99.90
21092;DHT22;10704;42.678;23.288;2022-09-02T07:24:30;21.40;99.90
21092;DHT22;10704;42.678;23.288;2022-09-02T07:26:57;21.60;99.90
21092;DHT22;10704;42.678;23.288;2022-09-02T07:29:25;21.80;99.90
21092;DHT22;10704;42.678;23.288;2022-09-02T07:31:51;22.00;99.90
21092;DHT22;10704;42.678;23.288;2022-09-02T07:34:19;22.10;99.90
21092;DHT22;10704;42.678;23.288;2022-09-02T07:36:47;22.10;99.90
21092;DHT22;10704;42.678;23.288;2022-09-02T07:39:18;22.00;99.90
21092;DHT22;10704;42.678;23.288;2022-09-02T07:41:47;21.90;99.90
21092;DHT22;10704;42.678;23.288;2022-09-02T07:44:14;21.90;99.90
21092;DHT22;10704;42.678;23.288;2022-09-02T07:46:42;21.80;99.90
21092;DHT22;10704;42.678;23.288;2022-09-02T07:49:11;21.90;99.90
21092;DHT22;10704;42.678;23.288;2022-09-02T07:51:40;22.00;99.90
21092;DHT22;10704;42.678;23.288;2022-09-02T07:54:08;22.00;99.90
21092;DHT22;10704;42.678;23.288;2022-09-02T07:56:35;22.20;99.90
21092;DHT22;10704;42.678;23.288;2022-09-02T07:59:02;22.00;99.90
21092;DHT22;10704;42.678;23.288;2022-09-02T08:01:29;22.20;99.90
21092;DHT22;10704;42.678;23.288;2022-09-02T08:03:56;22.40;99.90
21092;DHT22;10704;42.678;23.288;2022-09-02T08:06:27;22.50;99.90
21092;DHT22;10704;42.678;23.288;2022-09-02T08:08:54;22.60;99.90
21092;DHT22;10704;42.678;23.288;2022-09-02T08:11:20;22.80;99.90
21092;DHT22;10704;42.678;23.288;2022-09-02T08:13:46;22.70;99.90
21092;DHT22;10704;42.678;23.288;2022-09-02T08:16:12;22.50;99.90
21092;DHT22;10704;42.678;23.288;2022-09-02T08:18:39;22.20;99.90
21092;DHT22;10704;42.678;23.288;2022-09-02T08:21:05;21.90;99.90
21092;DHT22;10704;42.678;23.288;2022-09-02T08:23:31;22.00;99.90
21092;DHT22;10704;42.678;23.288;2022-09-02T08:26:00;22.00;99.90
21092;DHT22;10704;42.678;23.288;2022-09-02T08:28:27;22.10;99.90
21092;DHT22;10704;42.678;23.288;2022-09-02T08:30:54;22.00;99.90
21092;DHT22;10704;42.678;23.288;2022-09-02T08:33:24;21.80;99.90
21092;DHT22;10704;42.678;23.288;2022-09-02T08:35:50;21.70;99.90
21092;DHT22;10704;42.678;23.288;2022-09-02T08:38:16;22.00;99.90
21092;DHT22;10704;42.678;23.288;2022-09-02T08:40:43;21.90;99.90
21092;DHT22;10704;42.678;23.288;2022-09-02T08:46:01;21.80;99.90
21092;DHT22;10704;42.678;23.288;2022-09-02T08:48:54;21.90;99.90
21092;DHT22;10704;42.678;23.288;2022-09-02T08:51:41;21.70;99.90
21092;DHT22;10704;42.678;23.288;2022-09-02T08:56:54;21.70;99.90
21092;DHT22;10704;42.678;23.288;2022-09-02T08:59:22;21.90;99.90
21092;DHT22;10704;42.678;23.288;2022-09-02T09:02:20;22.00;99.90
21092;DHT22;10704;42.678;23.288;2022-09-02T09:10:19;22.60;99.90
21092;DHT22;10704;42.678;23.288;2022-09-02T09:18:40;22.40;99.90
21092;DHT22;10704;42.678;23.288;2022-09-02T09:21:08;22.70;99.90
21092;DHT22;10704;42.678;23.288;2022-09-02T09:23:38;22.60;99.90
21092;DHT22;10704;42.678;23.288;2022-09-02T09:28:30;22.10;99.90
21092;DHT22;10704;42.678;23.288;2022-09-02T09:30:59;22.50;99.90
21092;DHT22;10704;42.678;23.288;2022-09-02T09:33:25;22.80;99.90
21092;DHT22;10704;42.678;23.288;2022-09-02T09:35:53;23.30;99.90
21092;DHT22;10704;42.678;23.288;2022-09-02T09:38:31;23.50;99.90
21092;DHT22;10704;42.678;23.288;2022-09-02T09:41:13;23.60;99.90
21092;DHT22;10704;42.678;23.288;2022-09-02T09:43:40;24.00;99.90
21092;DHT22;10704;42.678;23.288;2022-09-02T09:46:21;24.40;99.90
21092;DHT22;10704;42.678;23.288;2022-09-02T09:48:49;24.80;99.90
21092;DHT22;10704;42.678;23.288;2022-09-02T09:51:16;24.30;99.90
21092;DHT22;10704;42.678;23.288;2022-09-02T09:53:42;24.00;99.90
21092;DHT22;10704;42.678;23.288;2022-09-02T10:01:32;24.20;99.90
21092;DHT22;10704;42.678;23.288;2022-09-02T10:04:09;24.30;99.90
21092;DHT22;10704;42.678;23.288;2022-09-02T10:06:39;24.00;99.90
21092;DHT22;10704;42.678;23.288;2022-09-02T10:09:32;23.80;99.90
21092;DHT22;10704;42.678;23.288;2022-09-02T10:12:05;23.80;99.90
21092;DHT22;10704;42.678;23.288;2022-09-02T10:14:43;24.00;99.90
21092;DHT22;10704;42.678;23.288;2022-09-02T10:17:27;24.50;99.90
21092;DHT22;10704;42.678;23.288;2022-09-02T10:31:28;24.80;99.90
21092;DHT22;10704;42.678;23.288;2022-09-02T10:42:41;24.80;99.90
21092;DHT22;10704;42.678;23.288;2022-09-02T10:48:35;25.10;99.90
21092;DHT22;10704;42.678;23.288;2022-09-02T10:51:35;25.10;99.90
21092;DHT22;10704;42.678;23.288;2022-09-02T10:54:36;25.30;99.90
21092;DHT22;10704;42.678;23.288;2022-09-02T10:57:09;25.40;99.90
21092;DHT22;10704;42.678;23.288;2022-09-02T11:00:08;24.90;99.90
21092;DHT22;10704;42.678;23.288;2022-09-02T11:02:42;24.90;99.90
21092;DHT22;10704;42.678;23.288;2022-09-02T11:05:18;25.30;99.90
21092;DHT22;10704;42.678;23.288;2022-09-02T11:08:09;25.60;99.90
21092;DHT22;10704;42.678;23.288;2022-09-02T11:11:04;25.30;99.90
21092;DHT22;10704;42.678;23.288;2022-09-02T11:16:35;25.90;99.90
21092;DHT22;10704;42.678;23.288;2022-09-02T11:24:43;27.10;99.90
21092;DHT22;10704;42.678;23.288;2022-09-02T11:30:14;28.20;99.90
21092;DHT22;10704;42.678;23.288;2022-09-02T11:33:12;28.10;99.90
21092;DHT22;10704;42.678;23.288;2022-09-02T11:35:40;27.80;99.10
21092;DHT22;10704;42.678;23.288;2022-09-02T11:38:35;27.40;99.90
21092;DHT22;10704;42.678;23.288;2022-09-02T11:41:25;27.00;99.90
21092;DHT22;10704;42.678;23.288;2022-09-02T11:55:18;26.20;99.90
21092;DHT22;10704;42.678;23.288;2022-09-02T11:57:55;26.10;99.90
21092;DHT22;10704;42.678;23.288;2022-09-02T12:08:02;26.10;99.90
21092;DHT22;10704;42.678;23.288;2022-09-02T12:18:45;26.50;99.90
21092;DHT22;10704;42.678;23.288;2022-09-02T12:21:34;26.60;99.90
21092;DHT22;10704;42.678;23.288;2022-09-02T12:27:01;26.40;99.90
21092;DHT22;10704;42.678;23.288;2022-09-02T12:31:49;26.90;99.90
21092;DHT22;10704;42.678;23.288;2022-09-02T12:36:58;28.00;99.90
21092;DHT22;10704;42.678;23.288;2022-09-02T12:57:41;26.40;99.90
21092;DHT22;10704;42.678;23.288;2022-09-02T13:00:32;26.00;99.90
21092;DHT22;10704;42.678;23.288;2022-09-02T13:03:20;25.90;99.90
21092;DHT22;10704;42.678;23.288;2022-09-02T13:26:09;24.90;99.90
21092;DHT22;10704;42.678;23.288;2022-09-02T13:31:26;24.70;99.90
21092;DHT22;10704;42.678;23.288;2022-09-02T13:34:04;24.60;99.90
21092;DHT22;10704;42.678;23.288;2022-09-02T13:36:42;24.50;99.90
21092;DHT22;10704;42.678;23.288;2022-09-02T13:39:14;24.30;99.90
21092;DHT22;10704;42.678;23.288;2022-09-02T13:41:40;24.20;99.90
21092;DHT22;10704;42.678;23.288;2022-09-02T13:44:08;23.60;99.90
21092;DHT22;10704;42.678;23.288;2022-09-02T13:47:04;22.60;99.90
21092;DHT22;10704;42.678;23.288;2022-09-02T13:49:40;21.40;99.90
21092;DHT22;10704;42.678;23.288;2022-09-02T13:52:18;20.90;99.90
21092;DHT22;10704;42.678;23.288;2022-09-02T13:54:51;20.70;99.90
21092;DHT22;10704;42.678;23.288;2022-09-02T13:57:22;20.50;99.90
21092;DHT22;10704;42.678;23.288;2022-09-02T13:59:51;20.30;99.90
21092;DHT22;10704;42.678;23.288;2022-09-02T14:02:26;20.20;99.90
21092;DHT22;10704;42.678;23.288;2022-09-02T14:07:30;20.00;99.90
21092;DHT22;10704;42.678;23.288;2022-09-02T14:09:59;19.90;99.90
21092;DHT22;10704;42.678;23.288;2022-09-02T14:12:26;19.90;99.90
21092;DHT22;10704;42.678;23.288;2022-09-02T14:14:54;19.80;99.90
21092;DHT22;10704;42.678;23.288;2022-09-02T14:17:25;20.00;99.90
21092;DHT22;10704;42.678;23.288;2022-09-02T14:22:35;19.50;99.90
21092;DHT22;10704;42.678;23.288;2022-09-02T14:25:17;19.30;99.90
21092;DHT22;10704;42.678;23.288;2022-09-02T14:27:51;19.30;99.90
21092;DHT22;10704;42.678;23.288;2022-09-02T14:33:16;19.30;99.90
21092;DHT22;10704;42.678;23.288;2022-09-02T14:35:55;19.30;99.90
21092;DHT22;10704;42.678;23.288;2022-09-02T14:38:26;19.30;99.90
21092;DHT22;10704;42.678;23.288;2022-09-02T14:41:02;19.40;99.90
21092;DHT22;10704;42.678;23.288;2022-09-02T14:43:39;19.50;99.90
21092;DHT22;10704;42.678;23.288;2022-09-02T14:46:06;19.50;99.90
21092;DHT22;10704;42.678;23.288;2022-09-02T14:48:38;19.60;99.90
21092;DHT22;10704;42.678;23.288;2022-09-02T14:51:06;19.70;99.90
21092;DHT22;10704;42.678;23.288;2022-09-02T14:53:33;19.70;99.90
21092;DHT22;10704;42.678;23.288;2022-09-02T14:56:04;19.80;99.90
21092;DHT22;10704;42.678;23.288;2022-09-02T14:58:30;19.90;99.90
21092;DHT22;10704;42.678;23.288;2022-09-02T15:00:58;19.90;99.90
21092;DHT22;10704;42.678;23.288;2022-09-02T15:03:25;19.90;99.90
21092;DHT22;10704;42.678;23.288;2022-09-02T15:05:51;19.90;99.90
21092;DHT22;10704;42.678;23.288;2022-09-02T15:08:18;19.80;99.90
21092;DHT22;10704;42.678;23.288;2022-09-02T15:10:44;19.90;99.90
21092;DHT22;10704;42.678;23.288;2022-09-02T15:13:13;20.00;99.90
21092;DHT22;10704;42.678;23.288;2022-09-02T15:15:43;20.10;99.90
21092;DHT22;10704;42.678;23.288;2022-09-02T15:18:09;20.00;99.90
21092;DHT22;10704;42.678;23.288;2022-09-02T15:20:36;20.10;99.90
21092;DHT22;10704;42.678;23.288;2022-09-02T15:23:02;20.10;99.90
21092;DHT22;10704;42.678;23.288;2022-09-02T15:25:28;20.00;99.90
21092;DHT22;10704;42.678;23.288;2022-09-02T15:27:54;20.10;99.90
21092;DHT22;10704;42.678;23.288;2022-09-02T15:30:20;20.20;99.90
21092;DHT22;10704;42.678;23.288;2022-09-02T15:32:46;20.10;99.90
21092;DHT22;10704;42.678;23.288;2022-09-02T15:35:12;20.10;99.90
21092;DHT22;10704;42.678;23.288;2022-09-02T15:37:38;20.00;99.90
21092;DHT22;10704;42.678;23.288;2022-09-02T15:40:05;20.00;99.90
21092;DHT22;10704;42.678;23.288;2022-09-02T15:42:36;20.00;99.90
21092;DHT22;10704;42.678;23.288;2022-09-02T15:45:05;20.20;99.90
21092;DHT22;10704;42.678;23.288;2022-09-02T15:47:34;20.20;99.90
21092;DHT22;10704;42.678;23.288;2022-09-02T15:50:00;20.20;99.90
21092;DHT22;10704;42.678;23.288;2022-09-02T15:52:26;20.10;99.90
21092;DHT22;10704;42.678;23.288;2022-09-02T15:54:55;20.20;99.90
21092;DHT22;10704;42.678;23.288;2022-09-02T15:57:21;20.30;99.90
21092;DHT22;10704;42.678;23.288;2022-09-02T15:59:47;20.30;99.90
21092;DHT22;10704;42.678;23.288;2022-09-02T16:02:13;20.30;99.90
21092;DHT22;10704;42.678;23.288;2022-09-02T16:04:39;20.20;99.90
21092;DHT22;10704;42.678;23.288;2022-09-02T16:07:06;20.10;99.90
21092;DHT22;10704;42.678;23.288;2022-09-02T16:09:32;20.00;99.90
21092;DHT22;10704;42.678;23.288;2022-09-02T16:11:58;20.10;99.90
21092;DHT22;10704;42.678;23.288;2022-09-02T16:14:24;20.00;99.90
21092;DHT22;10704;42.678;23.288;2022-09-02T16:16:51;20.00;99.90
21092;DHT22;10704;42.678;23.288;2022-09-02T16:19:19;19.90;99.90
21092;DHT22;10704;42.678;23.288;2022-09-02T16:21:47;19.70;99.90
21092;DHT22;10704;42.678;23.288;2022-09-02T16:24:12;19.70;99.90
21092;DHT22;10704;42.678;23.288;2022-09-02T16:26:39;19.60;99.90
21092;DHT22;10704;42.678;23.288;2022-09-02T16:29:08;19.50;99.90
21092;DHT22;10704;42.678;23.288;2022-09-02T16:31:36;19.30;99.90
21092;DHT22;10704;42.678;23.288;2022-09-02T16:34:16;19.00;99.90
21092;DHT22;10704;42.678;23.288;2022-09-02T16:36:45;18.90;99.90
21092;DHT22;10704;42.678;23.288;2022-09-02T16:39:12;18.80;99.90
21092;DHT22;10704;42.678;23.288;2022-09-02T16:41:44;18.70;99.90
21092;DHT22;10704;42.678;23.288;2022-09-02T16:44:15;18.60;99.90
21092;DHT22;10704;42.678;23.288;2022-09-02T16:46:43;18.40;99.90
21092;DHT22;10704;42.678;23.288;2022-09-02T16:49:11;18.30;99.90
21092;DHT22;10704;42.678;23.288;2022-09-02T16:51:38;18.30;99.90
21092;DHT22;10704;42.678;23.288;2022-09-02T16:54:06;18.10;99.90
21092;DHT22;10704;42.678;23.288;2022-09-02T16:56:33;18.00;99.90
21092;DHT22;10704;42.678;23.288;2022-09-02T16:59:04;17.90;99.90
21092;DHT22;10704;42.678;23.288;2022-09-02T17:01:30;17.80;99.90
21092;DHT22;10704;42.678;23.288;2022-09-02T17:03:57;17.70;99.90
21092;DHT22;10704;42.678;23.288;2022-09-02T17:06:24;17.70;99.90
21092;DHT22;10704;42.678;23.288;2022-09-02T17:08:51;17.70;99.90
21092;DHT22;10704;42.678;23.288;2022-09-02T17:14:01;17.60;99.90
21092;DHT22;10704;42.678;23.288;2022-09-02T17:16:33;17.70;99.90
21092;DHT22;10704;42.678;23.288;2022-09-02T17:19:00;17.70;99.90
21092;DHT22;10704;42.678;23.288;2022-09-02T17:24:01;17.60;99.90
21092;DHT22;10704;42.678;23.288;2022-09-02T17:26:29;17.70;99.90
21092;DHT22;10704;42.678;23.288;2022-09-02T17:28:56;17.70;99.90
21092;DHT22;10704;42.678;23.288;2022-09-02T17:31:27;17.70;99.90
21092;DHT22;10704;42.678;23.288;2022-09-02T17:33:57;17.60;99.90
21092;DHT22;10704;42.678;23.288;2022-09-02T17:36:24;17.70;99.90
21092;DHT22;10704;42.678;23.288;2022-09-02T17:38:59;17.60;99.90
21092;DHT22;10704;42.678;23.288;2022-09-02T17:41:26;17.70;99.90
21092;DHT22;10704;42.678;23.288;2022-09-02T17:44:12;17.60;99.90
21092;DHT22;10704;42.678;23.288;2022-09-02T17:46:39;17.60;99.90
21092;DHT22;10704;42.678;23.288;2022-09-02T17:49:05;17.60;99.90
21092;DHT22;10704;42.678;23.288;2022-09-02T17:51:32;17.60;99.90
21092;DHT22;10704;42.678;23.288;2022-09-02T17:53:58;17.70;99.90
21092;DHT22;10704;42.678;23.288;2022-09-02T18:01:30;17.60;99.90
21092;DHT22;10704;42.678;23.288;2022-09-02T18:04:41;17.50;99.90
21092;DHT22;10704;42.678;23.288;2022-09-02T18:09:55;17.50;99.90
21092;DHT22;10704;42.678;23.288;2022-09-02T18:12:22;17.40;99.90
21092;DHT22;10704;42.678;23.288;2022-09-02T18:14:57;17.50;99.90